Time;durP1;ratioP1;P1;durP2;ratioP2;P2;SDS_P1;SDS_P2;PMS_P1;PMS_P2;Temp;Humidity;BMP_temperature;BMP_pressure;BME280_temperature;BME280_humidity;BME280_pressure;Samples;Min_cycle;Max_cycle;Signal;HPM_P1;HPM_P2
2021/07/11 00:02:23;;;;;;;10.40;9.57;;;18.70;99.90;;;;;;3603349;40;20229;-82
2021/07/11 00:04:51;;;;;;;11.77;10.75;;;18.70;99.90;;;;;;3603398;40;20258;-82
2021/07/11 00:07:18;;;;;;;14.63;10.85;;;18.70;99.90;;;;;;3603441;40;20238;-84
2021/07/11 00:09:45;;;;;;;12.68;11.13;;;18.60;99.90;;;;;;3603305;40;20214;-81
2021/07/11 00:12:13;;;;;;;12.90;11.70;;;18.60;99.90;;;;;;3603343;40;20820;-81
2021/07/11 00:14:40;;;;;;;12.43;11.30;;;18.60;99.90;;;;;;3603342;40;20736;-82
2021/07/11 00:17:08;;;;;;;11.98;10.77;;;18.60;99.90;;;;;;3603417;40;20234;-81
2021/07/11 00:19:35;;;;;;;12.95;11.60;;;18.60;99.90;;;;;;3594585;40;20246;-82
2021/07/11 00:22:03;;;;;;;12.98;11.88;;;18.70;99.90;;;;;;3594610;40;20280;-80
2021/07/11 00:24:31;;;;;;;11.70;10.63;;;18.70;99.90;;;;;;3594649;40;20796;-81
2021/07/11 00:27:03;;;;;;;11.50;10.50;;;18.70;99.90;;;;;;3603298;40;20299;-83
2021/07/11 00:29:30;;;;;;;11.25;10.15;;;18.70;99.90;;;;;;3594495;40;20238;-82
2021/07/11 00:31:59;;;;;;;12.80;11.48;;;18.70;99.90;;;;;;3603207;40;20791;-83
2021/07/11 00:34:26;;;;;;;12.55;11.30;;;18.70;99.90;;;;;;3586233;40;20230;-83
2021/07/11 00:36:53;;;;;;;13.95;11.77;;;18.60;99.90;;;;;;3603280;40;20292;-82
2021/07/11 00:39:22;;;;;;;12.20;11.02;;;18.60;99.90;;;;;;3586093;40;20762;-81
2021/07/11 00:41:49;;;;;;;11.02;10.10;;;18.50;99.90;;;;;;3603069;40;20230;-82
2021/07/11 00:44:16;;;;;;;11.85;10.73;;;18.50;99.90;;;;;;3603201;40;20289;-81
2021/07/11 00:46:48;;;;;;;12.27;11.18;;;18.60;99.90;;;;;;3602814;40;20215;-81
2021/07/11 00:49:16;;;;;;;13.07;11.77;;;18.50;99.90;;;;;;3594334;40;20246;-81
2021/07/11 00:51:46;;;;;;;13.27;12.02;;;18.20;99.90;;;;;;3594579;40;20244;-81
2021/07/11 00:54:16;;;;;;;12.95;11.85;;;17.70;99.90;;;;;;3594188;40;20296;-83
2021/07/11 00:56:45;;;;;;;12.48;11.32;;;17.60;99.90;;;;;;3594537;40;20250;-81
2021/07/11 00:59:14;;;;;;;14.25;12.85;;;17.80;99.90;;;;;;3593864;40;20226;-81
2021/07/11 01:01:48;;;;;;;13.63;12.43;;;17.60;99.90;;;;;;3594432;40;20238;-80
2021/07/11 01:04:22;;;;;;;13.40;12.20;;;17.70;99.90;;;;;;3594384;40;20265;-81
2021/07/11 01:06:55;;;;;;;13.45;12.27;;;17.90;99.90;;;;;;3602970;40;20242;-81
2021/07/11 01:09:31;;;;;;;13.02;11.82;;;18.00;99.90;;;;;;3593857;40;20270;-81
2021/07/11 01:12:05;;;;;;;13.57;12.35;;;18.10;99.90;;;;;;3594362;40;20206;-82
2021/07/11 01:14:40;;;;;;;13.45;12.05;;;18.20;99.90;;;;;;3594445;40;20238;-80
2021/07/11 01:17:08;;;;;;;14.02;12.45;;;18.20;99.90;;;;;;3594280;40;20884;-82
2021/07/11 01:19:44;;;;;;;13.93;12.73;;;18.30;99.90;;;;;;3585867;40;20894;-81
2021/07/11 01:22:21;;;;;;;15.43;13.93;;;18.40;99.90;;;;;;3602982;40;20239;-82
2021/07/11 01:24:52;;;;;;;13.02;12.02;;;18.30;99.90;;;;;;3594152;40;20222;-82
2021/07/11 01:27:21;;;;;;;12.85;11.68;;;18.30;99.90;;;;;;3602485;40;20234;-81
2021/07/11 01:29:49;;;;;;;15.05;13.68;;;18.40;99.90;;;;;;3593752;40;20234;-82
2021/07/11 01:32:18;;;;;;;15.05;12.30;;;18.30;99.90;;;;;;3602862;40;20242;-82
2021/07/11 01:34:50;;;;;;;14.75;13.45;;;18.30;99.90;;;;;;3593822;40;20743;-81
2021/07/11 01:37:18;;;;;;;13.50;12.15;;;18.30;99.90;;;;;;3594347;40;20272;-84
2021/07/11 01:39:46;;;;;;;14.25;12.60;;;18.30;99.90;;;;;;3594065;40;20247;-81
2021/07/11 01:42:16;;;;;;;15.27;13.73;;;18.20;99.90;;;;;;3602901;40;20700;-81
2021/07/11 01:44:46;;;;;;;14.65;13.25;;;18.20;99.90;;;;;;3593922;40;20222;-81
2021/07/11 01:47:15;;;;;;;13.88;12.68;;;18.30;99.90;;;;;;3596044;39;20233;-82
2021/07/11 01:49:43;;;;;;;12.68;11.40;;;18.30;99.90;;;;;;3595736;39;20249;-82
2021/07/11 01:52:11;;;;;;;14.05;12.60;;;18.30;99.90;;;;;;3612601;39;20237;-82
2021/07/11 01:54:38;;;;;;;17.63;12.63;;;18.30;99.90;;;;;;3612478;39;20241;-84
2021/07/11 01:57:07;;;;;;;14.48;13.27;;;18.10;99.90;;;;;;3603914;39;20241;-81
2021/07/11 01:59:46;;;;;;;14.52;13.18;;;18.20;99.90;;;;;;3604082;39;20245;-82
2021/07/11 02:02:46;;;;;;;14.15;12.98;;;18.30;99.90;;;;;;3612902;39;20250;-80
2021/07/11 02:05:34;;;;;;;12.93;11.75;;;18.10;99.90;;;;;;3604133;39;20222;-82
2021/07/11 02:08:04;;;;;;;13.82;12.73;;;18.20;99.90;;;;;;3604162;39;20206;-82
2021/07/11 02:10:35;;;;;;;15.95;14.55;;;18.20;99.90;;;;;;3603983;39;20241;-81
2021/07/11 02:13:32;;;;;;;15.18;13.52;;;18.20;99.90;;;;;;3612502;39;20241;-82
2021/07/11 02:16:09;;;;;;;18.98;14.00;;;18.20;99.90;;;;;;3612551;39;20295;-82
2021/07/11 02:18:41;;;;;;;14.15;12.70;;;18.10;99.90;;;;;;3603687;39;20234;-83
2021/07/11 02:21:21;;;;;;;13.85;12.43;;;18.10;99.90;;;;;;3612307;39;20237;-82
2021/07/11 02:23:50;;;;;;;14.35;12.95;;;18.10;99.90;;;;;;3612058;39;20225;-82
2021/07/11 02:26:20;;;;;;;14.10;12.88;;;18.20;99.90;;;;;;3612465;39;20214;-82
2021/07/11 02:28:49;;;;;;;14.85;13.32;;;18.20;99.90;;;;;;3603937;39;20730;-81
2021/07/11 02:31:18;;;;;;;14.52;13.13;;;18.20;99.90;;;;;;3603827;39;20249;-81
2021/07/11 02:33:47;;;;;;;13.85;12.48;;;18.10;99.90;;;;;;3612235;39;20242;-84
2021/07/11 02:36:19;;;;;;;13.85;12.55;;;18.10;99.90;;;;;;3612407;39;20259;-82
2021/07/11 02:38:49;;;;;;;14.13;12.82;;;18.10;99.90;;;;;;3612606;39;20279;-81
2021/07/11 02:41:19;;;;;;;15.18;13.68;;;18.10;99.90;;;;;;3603857;39;20233;-83
2021/07/11 02:43:50;;;;;;;14.50;13.30;;;18.10;99.90;;;;;;3603846;39;20210;-81
2021/07/11 02:46:22;;;;;;;13.75;12.55;;;18.00;99.90;;;;;;3612320;39;20278;-82
2021/07/11 02:48:53;;;;;;;15.57;13.98;;;18.00;99.90;;;;;;3605749;39;20821;-81
2021/07/11 02:51:25;;;;;;;14.07;12.65;;;17.90;99.90;;;;;;3603739;39;20221;-82
2021/07/11 02:54:00;;;;;;;14.35;12.95;;;17.90;99.90;;;;;;3603803;39;20233;-82
2021/07/11 02:56:33;;;;;;;13.27;12.07;;;18.00;99.90;;;;;;3602526;39;20229;-82
2021/07/11 02:59:02;;;;;;;14.50;13.10;;;18.00;99.90;;;;;;3605027;39;20253;-81
2021/07/11 03:01:32;;;;;;;12.38;11.38;;;18.00;99.90;;;;;;3622594;39;20224;-82
2021/07/11 03:04:02;;;;;;;13.85;12.70;;;17.90;99.90;;;;;;3613834;39;20268;-81
2021/07/11 03:06:32;;;;;;;16.27;14.45;;;17.90;99.90;;;;;;3613922;39;20707;-82
2021/07/11 03:08:59;;;;;;;13.52;12.18;;;17.60;99.90;;;;;;3613704;39;20235;-80
2021/07/11 03:11:28;;;;;;;14.80;13.38;;;17.40;99.90;;;;;;3613771;39;20221;-81
2021/07/11 03:13:58;;;;;;;13.45;12.20;;;17.40;99.90;;;;;;3613747;39;20221;-81
2021/07/11 03:16:31;;;;;;;13.13;12.00;;;17.50;99.90;;;;;;3613787;39;20240;-82
2021/07/11 03:19:01;;;;;;;18.50;13.93;;;17.70;99.90;;;;;;3622356;39;20767;-81
2021/07/11 03:21:31;;;;;;;14.57;13.18;;;17.50;99.90;;;;;;3613521;39;20225;-81
2021/07/11 03:23:59;;;;;;;15.70;14.23;;;17.20;99.90;;;;;;3613807;39;20213;-81
2021/07/11 03:26:29;;;;;;;16.00;14.15;;;17.10;99.90;;;;;;3613257;39;20229;-86
2021/07/11 03:28:57;;;;;;;13.90;12.70;;;17.10;99.90;;;;;;3622294;39;20213;-86
2021/07/11 03:31:25;;;;;;;13.50;12.27;;;17.20;99.90;;;;;;3622231;39;20241;-83
2021/07/11 03:33:56;;;;;;;13.88;12.65;;;17.40;99.90;;;;;;3623688;39;20245;-83
2021/07/11 03:36:30;;;;;;;13.57;12.27;;;17.50;99.90;;;;;;3604877;39;20234;-81
2021/07/11 03:39:07;;;;;;;18.27;13.65;;;17.30;99.90;;;;;;3599216;39;20279;-80
2021/07/11 03:41:40;;;;;;;14.55;13.05;;;17.30;99.90;;;;;;3587340;39;20234;-81
2021/07/11 03:44:11;;;;;;;13.48;12.27;;;17.20;99.90;;;;;;3596365;39;20210;-85
2021/07/11 03:46:42;;;;;;;13.02;11.93;;;17.30;99.90;;;;;;3613596;39;20241;-82
2021/07/11 03:49:13;;;;;;;14.23;12.70;;;17.30;99.90;;;;;;3613593;39;20841;-80
2021/07/11 03:51:41;;;;;;;13.80;12.40;;;17.50;99.90;;;;;;3613715;39;20214;-82
2021/07/11 03:54:11;;;;;;;14.77;13.23;;;17.50;99.90;;;;;;3611040;39;20226;-82
2021/07/11 03:56:39;;;;;;;12.80;11.60;;;17.50;99.90;;;;;;3603459;39;20218;-84
2021/07/11 03:59:07;;;;;;;14.43;13.05;;;17.40;99.90;;;;;;3603321;39;20280;-82
2021/07/11 04:01:36;;;;;;;13.60;12.38;;;17.50;99.90;;;;;;3594779;39;20780;-82
2021/07/11 04:04:08;;;;;;;15.25;13.68;;;17.50;99.90;;;;;;3594401;39;20706;-85
2021/07/11 04:06:37;;;;;;;13.88;12.77;;;17.50;99.90;;;;;;3603463;39;20797;-82
2021/07/11 04:09:05;;;;;;;13.90;12.30;;;17.50;99.90;;;;;;3594611;39;20815;-83
2021/07/11 04:11:34;;;;;;;13.73;12.30;;;17.50;99.90;;;;;;3603447;39;20237;-82
2021/07/11 04:14:01;;;;;;;15.23;13.40;;;17.50;99.90;;;;;;3603294;39;20247;-81
2021/07/11 04:16:30;;;;;;;13.00;12.00;;;17.50;99.90;;;;;;3603050;39;20222;-85
2021/07/11 04:18:59;;;;;;;14.52;13.13;;;17.50;99.90;;;;;;3594671;39;20238;-81
2021/07/11 04:21:31;;;;;;;14.75;13.13;;;17.50;99.90;;;;;;3594469;39;20281;-81
2021/07/11 04:23:59;;;;;;;13.15;11.82;;;17.50;99.90;;;;;;3602601;39;20231;-82
2021/07/11 04:26:27;;;;;;;13.63;12.38;;;17.60;99.90;;;;;;3603237;39;20756;-82
2021/07/11 04:28:54;;;;;;;14.40;13.10;;;17.60;99.90;;;;;;3594672;39;20820;-82
2021/07/11 04:31:23;;;;;;;14.50;13.07;;;17.60;99.90;;;;;;3608559;39;20838;-82
2021/07/11 04:33:50;;;;;;;12.82;11.73;;;17.60;99.90;;;;;;3613308;39;20226;-80
2021/07/11 04:36:17;;;;;;;15.85;14.07;;;17.60;99.90;;;;;;3613004;39;20685;-82
2021/07/11 04:38:44;;;;;;;15.25;13.82;;;17.60;99.90;;;;;;3604697;39;20886;-82
2021/07/11 04:41:12;;;;;;;15.80;14.20;;;17.60;99.90;;;;;;3604466;39;20241;-82
2021/07/11 04:43:41;;;;;;;14.88;13.48;;;17.60;99.90;;;;;;3612654;39;20210;-82
2021/07/11 04:46:08;;;;;;;15.23;13.55;;;17.60;99.90;;;;;;3613261;39;20238;-83
2021/07/11 04:48:35;;;;;;;16.45;14.95;;;17.70;99.90;;;;;;3613302;39;20238;-88
2021/07/11 04:51:02;;;;;;;15.40;14.10;;;17.80;99.90;;;;;;3604367;39;20718;-82
2021/07/11 04:53:29;;;;;;;13.77;12.57;;;17.80;99.90;;;;;;3613197;39;20248;-82
2021/07/11 04:55:57;;;;;;;15.43;14.02;;;18.00;99.90;;;;;;3612880;39;20234;-83
2021/07/11 04:58:25;;;;;;;15.77;14.32;;;18.00;99.90;;;;;;3613230;39;20245;-82
2021/07/11 05:00:53;;;;;;;15.38;13.88;;;18.20;99.90;;;;;;3612616;39;20295;-82
2021/07/11 05:03:20;;;;;;;16.77;15.18;;;18.20;99.90;;;;;;3613170;39;20414;-83
2021/07/11 05:05:47;;;;;;;18.65;16.80;;;18.20;99.90;;;;;;3613220;39;20975;-82
2021/07/11 05:08:14;;;;;;;16.10;14.70;;;18.30;99.90;;;;;;3613129;39;20230;-85
2021/07/11 05:10:41;;;;;;;19.08;17.38;;;18.30;99.90;;;;;;3612947;39;20234;-81
2021/07/11 05:13:08;;;;;;;17.00;15.50;;;18.40;99.90;;;;;;3604417;39;20778;-82
2021/07/11 05:15:37;;;;;;;17.10;15.48;;;18.70;99.90;;;;;;3604194;39;20831;-83
2021/07/11 05:18:04;;;;;;;16.33;14.82;;;18.60;99.90;;;;;;3613040;39;20233;-82
2021/07/11 05:20:31;;;;;;;17.55;15.70;;;18.60;99.90;;;;;;3604159;39;20238;-82
2021/07/11 05:22:58;;;;;;;16.50;14.90;;;18.60;99.90;;;;;;3613168;39;20738;-82
2021/07/11 05:25:25;;;;;;;14.73;13.52;;;18.70;99.90;;;;;;3604424;39;20217;-83
2021/07/11 05:27:52;;;;;;;16.42;14.85;;;18.60;99.90;;;;;;3612968;39;20242;-82
2021/07/11 05:30:20;;;;;;;15.93;14.63;;;18.60;99.90;;;;;;3611610;39;20870;-81
2021/07/11 05:32:49;;;;;;;15.10;13.80;;;18.70;99.90;;;;;;3612810;39;20237;-84
2021/07/11 05:35:17;;;;;;;16.00;14.70;;;18.80;99.90;;;;;;3612983;39;20748;-83
2021/07/11 05:37:44;;;;;;;20.48;18.20;;;18.70;99.90;;;;;;3612750;39;20221;-87
2021/07/11 05:40:13;;;;;;;17.58;16.08;;;18.80;99.90;;;;;;3612524;39;20249;-82
2021/07/11 05:42:40;;;;;;;18.60;16.70;;;19.10;99.90;;;;;;3612917;39;20245;-82
2021/07/11 05:45:08;;;;;;;20.65;18.85;;;19.30;99.90;;;;;;3604224;39;20253;-81
2021/07/11 05:47:36;;;;;;;16.55;14.50;;;19.40;99.90;;;;;;3612995;39;20739;-81
2021/07/11 05:50:05;;;;;;;14.63;13.27;;;19.50;99.90;;;;;;3612801;39;20827;-82
2021/07/11 05:52:32;;;;;;;15.02;13.52;;;19.30;99.90;;;;;;3612840;39;20790;-83
2021/07/11 05:54:59;;;;;;;14.50;13.10;;;19.40;99.90;;;;;;3612609;39;20279;-82
2021/07/11 05:57:27;;;;;;;15.52;13.82;;;19.50;99.90;;;;;;3612927;39;20698;-82
2021/07/11 05:59:55;;;;;;;15.07;13.73;;;19.60;99.90;;;;;;3612791;39;20765;-86
2021/07/11 06:02:22;;;;;;;15.07;13.68;;;19.60;99.90;;;;;;3612789;39;20238;-81
2021/07/11 06:04:49;;;;;;;17.00;15.50;;;19.70;99.90;;;;;;3612729;39;20229;-83
2021/07/11 06:07:17;;;;;;;16.13;14.63;;;19.80;99.90;;;;;;3612730;39;20233;-82
2021/07/11 06:09:44;;;;;;;15.15;13.85;;;19.60;99.90;;;;;;3612625;39;20230;-83
2021/07/11 06:12:11;;;;;;;16.58;14.90;;;19.50;99.90;;;;;;3612782;39;20237;-82
2021/07/11 06:14:38;;;;;;;16.90;15.32;;;19.50;99.90;;;;;;3612275;39;20326;-83
2021/07/11 06:17:05;;;;;;;15.20;13.63;;;19.70;99.90;;;;;;3612696;39;20241;-83
2021/07/11 06:19:32;;;;;;;14.52;13.23;;;19.90;99.90;;;;;;3612612;39;20271;-83
2021/07/11 06:21:59;;;;;;;17.23;14.98;;;20.00;99.90;;;;;;3612695;39;20245;-82
2021/07/11 06:24:28;;;;;;;15.48;14.07;;;20.00;99.90;;;;;;3612712;39;20226;-81
2021/07/11 06:26:55;;;;;;;14.80;13.38;;;20.10;99.90;;;;;;3612695;39;20249;-84
2021/07/11 06:29:22;;;;;;;17.52;15.82;;;20.30;99.90;;;;;;3612497;39;20229;-86
2021/07/11 06:31:49;;;;;;;16.13;14.63;;;20.40;99.90;;;;;;3612047;39;20252;-82
2021/07/11 06:34:16;;;;;;;16.40;14.77;;;20.60;99.90;;;;;;3612523;39;20244;-82
2021/07/11 06:36:43;;;;;;;17.13;15.32;;;20.70;99.90;;;;;;3611329;39;20222;-82
2021/07/11 06:39:10;;;;;;;16.00;14.30;;;20.90;99.90;;;;;;3603738;39;20245;-81
2021/07/11 06:41:39;;;;;;;17.33;15.52;;;21.00;99.90;;;;;;3612505;39;20226;-84
2021/07/11 06:44:06;;;;;;;15.02;13.52;;;21.00;99.90;;;;;;3612612;39;20209;-82
2021/07/11 06:46:33;;;;;;;15.38;13.90;;;21.10;99.90;;;;;;3611771;39;20214;-83
2021/07/11 06:49:00;;;;;;;21.75;19.50;;;21.20;99.90;;;;;;3612505;39;20226;-85
2021/07/11 06:51:27;;;;;;;17.08;15.05;;;21.30;99.90;;;;;;3612204;39;20669;-83
2021/07/11 06:53:54;;;;;;;16.58;14.98;;;21.30;99.90;;;;;;3603801;39;20259;-82
2021/07/11 06:56:21;;;;;;;33.30;25.20;;;21.20;99.90;;;;;;3612199;39;20256;-86
2021/07/11 06:58:50;;;;;;;20.88;16.75;;;21.40;99.90;;;;;;3612369;39;20248;-83
2021/07/11 07:01:17;;;;;;;26.25;22.42;;;21.60;99.90;;;;;;3612367;39;20233;-83
2021/07/11 07:03:44;;;;;;;16.30;14.68;;;21.70;99.90;;;;;;3612472;39;20298;-83
2021/07/11 07:06:12;;;;;;;19.58;16.25;;;21.90;99.90;;;;;;3603148;39;20232;-86
2021/07/11 07:08:39;;;;;;;20.80;16.50;;;22.00;99.90;;;;;;3613731;39;20291;-83
2021/07/11 07:11:06;;;;;;;18.52;16.17;;;22.20;99.90;;;;;;3613839;39;20261;-81
2021/07/11 07:13:33;;;;;;;39.30;35.47;;;22.10;99.90;;;;;;3613868;39;20237;-85
2021/07/11 07:16:01;;;;;;;21.17;18.08;;;22.00;99.90;;;;;;3613636;39;20218;-81
2021/07/11 07:18:28;;;;;;;20.42;17.17;;;22.10;99.90;;;;;;3605126;39;20218;-83
2021/07/11 07:20:55;;;;;;;15.98;14.45;;;22.20;99.90;;;;;;3613798;39;20244;-82
2021/07/11 07:23:22;;;;;;;19.05;16.95;;;22.30;99.90;;;;;;3613888;39;20775;-86
2021/07/11 07:25:49;;;;;;;17.48;15.50;;;22.20;99.90;;;;;;3613879;39;20815;-84
2021/07/11 07:28:16;;;;;;;18.70;16.08;;;22.20;99.90;;;;;;3613660;39;20226;-85
2021/07/11 07:30:43;;;;;;;17.42;15.65;;;22.30;99.90;;;;;;3613509;39;20234;-83
2021/07/11 07:33:12;;;;;;;15.68;14.32;;;22.60;99.90;;;;;;3613869;39;20222;-86
2021/07/11 07:35:39;;;;;;;17.27;15.63;;;22.80;99.90;;;;;;3605059;39;20237;-83
2021/07/11 07:38:07;;;;;;;16.20;14.63;;;22.70;99.90;;;;;;3613838;39;20260;-84
2021/07/11 07:40:35;;;;;;;16.77;15.18;;;23.00;99.90;;;;;;3613689;39;20817;-86
2021/07/11 07:43:02;;;;;;;16.60;14.77;;;23.10;99.90;;;;;;3613654;39;20241;-83
2021/07/11 07:45:29;;;;;;;19.00;17.25;;;23.00;99.90;;;;;;3605014;39;20248;-83
2021/07/11 07:47:56;;;;;;;18.27;15.88;;;23.00;99.90;;;;;;3613676;39;20222;-83
2021/07/11 07:50:25;;;;;;;18.80;16.92;;;23.10;99.90;;;;;;3613447;39;20225;-81
2021/07/11 07:52:52;;;;;;;19.20;17.30;;;23.30;99.90;;;;;;3613612;39;20747;-82
2021/07/11 07:55:19;;;;;;;17.50;16.00;;;23.10;99.90;;;;;;3613517;39;20437;-86
2021/07/11 07:57:46;;;;;;;19.70;17.90;;;23.30;99.90;;;;;;3604834;39;20224;-87
2021/07/11 08:00:15;;;;;;;20.83;19.02;;;23.30;99.90;;;;;;3604683;39;20258;-85
2021/07/11 08:02:42;;;;;;;18.80;16.42;;;23.60;99.90;;;;;;3613558;39;20206;-82
2021/07/11 08:05:10;;;;;;;20.30;17.83;;;23.60;99.90;;;;;;3604752;39;20232;-83
2021/07/11 08:07:39;;;;;;;17.88;16.27;;;23.70;99.90;;;;;;3613274;39;20220;-83
2021/07/11 08:10:08;;;;;;;16.65;15.25;;;23.60;99.90;;;;;;3612617;39;20226;-83
2021/07/11 08:12:35;;;;;;;17.20;15.50;;;23.60;99.90;;;;;;3613275;39;20237;-84
2021/07/11 08:15:03;;;;;;;17.80;16.13;;;23.60;99.90;;;;;;3612987;39;20258;-84
2021/07/11 08:17:31;;;;;;;17.58;15.88;;;23.70;99.90;;;;;;3604336;39;20230;-82
2021/07/11 08:19:59;;;;;;;16.52;14.93;;;23.70;99.90;;;;;;3612970;39;20233;-82
2021/07/11 08:22:26;;;;;;;17.20;15.50;;;23.50;99.90;;;;;;3613242;39;20233;-84
2021/07/11 08:24:54;;;;;;;16.88;15.38;;;23.40;99.90;;;;;;3613250;39;20261;-83
2021/07/11 08:27:22;;;;;;;18.30;16.70;;;23.50;99.90;;;;;;3613039;39;20222;-82
2021/07/11 08:29:51;;;;;;;18.58;16.85;;;23.50;99.90;;;;;;3604241;39;20250;-81
2021/07/11 08:32:18;;;;;;;16.25;14.73;;;23.10;99.90;;;;;;3613076;39;20230;-89
2021/07/11 08:34:45;;;;;;;15.68;14.13;;;23.30;99.90;;;;;;3612829;39;20241;-82
2021/07/11 08:37:12;;;;;;;15.95;14.45;;;23.60;99.90;;;;;;3613013;39;20238;-83
2021/07/11 08:39:39;;;;;;;17.08;15.02;;;23.90;99.90;;;;;;3613125;39;20237;-85
2021/07/11 08:42:09;;;;;;;19.20;17.48;;;24.00;99.90;;;;;;3604373;39;20233;-83
2021/07/11 08:44:36;;;;;;;16.13;14.73;;;24.30;99.90;;;;;;3611844;39;20222;-85
2021/07/11 08:47:04;;;;;;;18.65;16.77;;;24.50;99.90;;;;;;3612948;39;20271;-84
2021/07/11 08:49:32;;;;;;;15.65;14.25;;;24.70;99.90;;;;;;3604037;39;20230;-83
2021/07/11 08:52:01;;;;;;;15.32;13.98;;;25.10;99.90;;;;;;3601006;39;20263;-82
2021/07/11 08:54:28;;;;;;;16.35;14.75;;;25.10;99.90;;;;;;3611264;39;20237;-81
2021/07/11 08:56:59;;;;;;;14.48;13.20;;;25.10;99.90;;;;;;3612221;39;20211;-82
2021/07/11 08:59:29;;;;;;;14.85;13.52;;;24.80;99.90;;;;;;3604061;39;20241;-84
2021/07/11 09:01:57;;;;;;;14.65;13.23;;;24.50;99.90;;;;;;3611718;39;20254;-85
2021/07/11 09:04:25;;;;;;;15.05;13.73;;;24.50;99.90;;;;;;3612931;39;20238;-84
2021/07/11 09:06:56;;;;;;;18.55;16.80;;;24.50;99.90;;;;;;3612964;39;20237;-86
2021/07/11 09:09:25;;;;;;;15.88;14.23;;;24.90;99.90;;;;;;3612132;39;20234;-83
2021/07/11 09:11:55;;;;;;;14.35;13.18;;;24.80;99.90;;;;;;3604108;39;20202;-83
2021/07/11 09:14:23;;;;;;;14.55;13.23;;;24.70;99.90;;;;;;3612691;39;20225;-81
2021/07/11 09:16:53;;;;;;;15.07;13.73;;;24.80;99.90;;;;;;3612878;39;20253;-83
2021/07/11 09:19:22;;;;;;;14.60;13.35;;;25.10;99.90;;;;;;3612957;39;20237;-82
2021/07/11 09:21:54;;;;;;;15.07;13.10;;;25.10;99.90;;;;;;3612830;39;20635;-81
2021/07/11 09:24:22;;;;;;;13.65;12.40;;;24.90;99.90;;;;;;3613010;39;20220;-83
2021/07/11 09:26:50;;;;;;;14.23;12.85;;;25.10;99.90;;;;;;3612971;39;20264;-81
2021/07/11 09:29:28;;;;;;;13.25;12.18;;;25.30;99.90;;;;;;3612363;39;20257;-82
2021/07/11 09:31:57;;;;;;;14.30;12.80;;;25.30;99.90;;;;;;3610841;39;20241;-82
2021/07/11 09:34:25;;;;;;;15.27;12.70;;;25.30;99.90;;;;;;3602553;39;20207;-80
2021/07/11 09:37:11;;;;;;;16.13;14.70;;;25.50;99.90;;;;;;3602799;39;20684;-81
2021/07/11 09:39:46;;;;;;;15.88;13.88;;;26.10;99.90;;;;;;3602667;39;20230;-82
2021/07/11 09:42:27;;;;;;;15.13;13.65;;;26.00;99.90;;;;;;3607311;39;20225;-82
2021/07/11 09:45:17;;;;;;;14.57;13.18;;;25.80;99.90;;;;;;3604332;39;20240;-81
2021/07/11 09:47:46;;;;;;;13.27;12.05;;;25.50;99.90;;;;;;3612895;39;20229;-82
2021/07/11 09:50:16;;;;;;;12.68;11.57;;;25.20;99.90;;;;;;3612819;39;20248;-86
2021/07/11 09:52:45;;;;;;;13.85;12.57;;;24.90;99.90;;;;;;3604118;39;20287;-82
2021/07/11 09:55:14;;;;;;;12.38;11.45;;;25.20;99.90;;;;;;3612855;39;20241;-83
2021/07/11 09:57:44;;;;;;;13.68;12.27;;;25.20;99.90;;;;;;3612862;39;20660;-81
2021/07/11 10:00:15;;;;;;;11.68;10.55;;;25.00;99.90;;;;;;3612667;39;20237;-81
2021/07/11 10:02:43;;;;;;;11.93;10.82;;;24.80;99.90;;;;;;3612464;39;20282;-83
2021/07/11 10:05:13;;;;;;;14.00;12.63;;;24.70;99.90;;;;;;3612752;39;20226;-84
2021/07/11 10:07:41;;;;;;;12.65;11.48;;;24.50;99.90;;;;;;3612841;39;20241;-80
2021/07/11 10:10:10;;;;;;;12.68;11.48;;;24.40;99.90;;;;;;3612624;39;20237;-86
2021/07/11 10:12:38;;;;;;;16.20;11.93;;;24.60;99.90;;;;;;3612760;39;20242;-82
2021/07/11 10:15:11;;;;;;;12.50;11.40;;;24.70;99.90;;;;;;3612662;39;20251;-82
2021/07/11 10:17:42;;;;;;;14.35;13.10;;;24.50;99.90;;;;;;3612783;39;20241;-81
2021/07/11 10:20:12;;;;;;;15.65;14.25;;;24.50;99.90;;;;;;3612122;39;20242;-81
2021/07/11 10:22:44;;;;;;;13.30;11.75;;;24.50;99.90;;;;;;3612299;39;20242;-83
2021/07/11 10:25:14;;;;;;;15.57;13.95;;;24.40;99.90;;;;;;3603922;39;20233;-81
2021/07/11 10:27:41;;;;;;;15.40;13.98;;;24.20;99.90;;;;;;3612341;39;20245;-80
2021/07/11 10:30:09;;;;;;;14.45;13.00;;;24.20;99.90;;;;;;3612469;39;20245;-80
2021/07/11 10:33:23;;;;;;;12.63;11.52;;;24.40;99.90;;;;;;3612646;39;20674;-82
2021/07/11 10:35:54;;;;;;;13.15;12.10;;;24.40;99.90;;;;;;3612482;39;20230;-82
2021/07/11 10:38:32;;;;;;;12.15;11.05;;;24.50;99.90;;;;;;3612662;39;20229;-80
2021/07/11 10:41:11;;;;;;;11.88;10.93;;;24.60;99.90;;;;;;3603054;39;20241;-79
2021/07/11 10:43:39;;;;;;;11.65;10.65;;;24.70;99.90;;;;;;3612196;39;20245;-80
2021/07/11 10:46:06;;;;;;;9.63;8.75;;;24.90;99.90;;;;;;3612262;39;20224;-78
2021/07/11 10:48:33;;;;;;;9.38;8.50;;;24.80;99.90;;;;;;3603777;39;20226;-78
2021/07/11 10:51:05;;;;;;;8.00;7.30;;;24.90;99.90;;;;;;3601431;39;20416;-79
2021/07/11 10:53:38;;;;;;;8.00;7.28;;;25.10;99.90;;;;;;3595516;39;20681;-80
2021/07/11 10:56:06;;;;;;;8.27;7.57;;;25.50;99.90;;;;;;3612389;39;20266;-78
2021/07/11 10:58:46;;;;;;;7.60;7.10;;;25.70;99.90;;;;;;3612532;39;20206;-80
2021/07/11 11:01:20;;;;;;;8.57;6.10;;;25.90;99.90;;;;;;3603071;39;20454;-80
2021/07/11 11:03:49;;;;;;;7.57;6.97;;;26.00;99.90;;;;;;3612409;39;20252;-80
2021/07/11 11:06:19;;;;;;;7.60;7.00;;;26.10;99.90;;;;;;3600419;40;20306;-78
2021/07/11 11:08:47;;;;;;;7.97;7.35;;;26.30;99.90;;;;;;3604739;40;20238;-76
2021/07/11 11:11:14;;;;;;;8.55;6.90;;;26.40;99.90;;;;;;3609093;39;20244;-80
2021/07/11 11:13:42;;;;;;;9.35;8.55;;;26.70;99.90;;;;;;3612288;39;20225;-79
2021/07/11 11:16:18;;;;;;;9.02;8.20;;;27.10;99.90;;;;;;3612045;39;20242;-80
2021/07/11 11:18:51;;;;;;;9.20;8.38;;;27.10;99.90;;;;;;3612221;39;20225;-79
2021/07/11 11:21:22;;;;;;;9.48;8.73;;;27.50;99.90;;;;;;3611983;39;20238;-80
2021/07/11 11:23:50;;;;;;;12.30;11.07;;;27.60;99.90;;;;;;3612227;39;20236;-80
2021/07/11 11:26:19;;;;;;;11.25;8.55;;;27.60;99.90;;;;;;3609317;39;20241;-77
2021/07/11 11:28:46;;;;;;;8.98;8.27;;;27.50;99.90;;;;;;3604962;40;20426;-77
2021/07/11 11:31:16;;;;;;;8.88;8.18;;;27.60;99.90;;;;;;3611514;39;20260;-80
2021/07/11 11:33:49;;;;;;;8.30;7.60;;;27.40;99.90;;;;;;3610227;39;20230;-78
2021/07/11 11:36:24;;;;;;;7.55;6.95;;;27.00;99.90;;;;;;3600545;40;20254;-78
2021/07/11 11:38:51;;;;;;;8.93;8.15;;;27.00;99.90;;;;;;3611580;39;20236;-80
2021/07/11 11:41:19;;;;;;;8.32;7.53;;;;;;;;;;3610595;39;20429;-79
2021/07/11 11:43:47;;;;;;;8.68;7.85;;;;;;;;;;3610475;40;20606;-78
2021/07/11 11:46:25;;;;;;;8.10;7.28;;;;;;;;;;3608880;39;20447;-84
2021/07/11 11:48:56;;;;;;;7.38;6.68;;;;;;;;;;3611508;39;20245;-83
2021/07/11 11:51:24;;;;;;;8.40;6.95;;;;;;;;;;3611790;39;20259;-81
2021/07/11 11:53:52;;;;;;;8.35;6.50;;;;;;;;;;3612870;39;20842;-82
2021/07/11 11:56:19;;;;;;;9.15;7.05;;;;;;;;;;3613548;39;20710;-81
2021/07/11 11:58:47;;;;;;;9.38;8.57;;;;;;;;;;3613577;39;20209;-81
2021/07/11 12:01:15;;;;;;;8.43;7.63;;;;;;;;;;3613436;39;20234;-82
2021/07/11 12:03:43;;;;;;;8.50;7.80;;;;;;;;;;3613450;39;20240;-86
2021/07/11 12:06:12;;;;;;;7.15;6.55;;;;;;;;;;3613511;39;20224;-84
2021/07/11 12:08:41;;;;;;;8.00;7.30;;;;;;;;;;3613585;39;20712;-81
2021/07/11 12:11:09;;;;;;;7.03;6.35;;;;;;;;;;3613379;39;20742;-81
2021/07/11 12:13:37;;;;;;;7.18;6.45;;;;;;;;;;3613087;39;20226;-81
2021/07/11 12:16:09;;;;;;;7.65;6.82;;;;;;;;;;3613330;39;20229;-81
2021/07/11 12:18:46;;;;;;;7.72;7.03;;;;;;;;;;3613494;39;20234;-88
2021/07/11 12:21:19;;;;;;;8.15;7.45;;;;;;;;;;3613208;39;20236;-83
2021/07/11 12:23:58;;;;;;;7.75;6.60;;;;;;;;;;3612860;39;20221;-82
2021/07/11 12:26:26;;;;;;;6.47;6.07;;;;;;;;;;3613370;39;20237;-87
2021/07/11 12:28:54;;;;;;;6.63;5.82;;;;;;;;;;3604434;39;20226;-82
2021/07/11 12:31:21;;;;;;;7.47;6.40;;;;;;;;;;3612709;39;20234;-81
2021/07/11 12:33:56;;;;;;;6.55;5.95;;;;;;;;;;3613083;39;20723;-82
2021/07/11 12:36:23;;;;;;;10.80;9.85;;;;;;;;;;3613107;39;20252;-82
2021/07/11 12:38:51;;;;;;;7.97;7.28;;;;;;;;;;3613185;39;20230;-81
2021/07/11 12:41:22;;;;;;;8.20;7.45;;;;;;;;;;3604434;39;20291;-80
2021/07/11 12:43:52;;;;;;;7.75;7.00;;;;;;;;;;3613336;39;20230;-82
2021/07/11 12:46:23;;;;;;;7.07;6.40;;;;;;;;;;3612759;39;20218;-82
2021/07/11 12:48:51;;;;;;;7.65;6.95;;;;;;;;;;3613142;39;20237;-81
2021/07/11 12:51:20;;;;;;;9.95;6.80;;;;;;;;;;3613153;39;20230;-84
2021/07/11 12:53:48;;;;;;;8.50;7.63;;;;;;;;;;3613175;39;20234;-82